Time;durP1;ratioP1;P1;durP2;ratioP2;P2;SDS_P1;SDS_P2;PMS_P1;PMS_P2;Temp;Humidity;BMP_temperature;BMP_pressure;BME280_temperature;BME280_humidity;BME280_pressure;Samples;Min_cycle;Max_cycle;Signal;HPM_P1;HPM_P2
2022/01/30 00:01:09;;;;;;;0.90;0.90;;;8.10;99.90;;;;;;5198932;28;20041;-74
2022/01/30 00:03:39;;;;;;;0.88;0.88;;;8.10;99.90;;;;;;5197294;28;20013;-74
2022/01/30 00:06:10;;;;;;;0.63;0.63;;;8.20;99.90;;;;;;5183779;28;20397;-74
2022/01/30 00:08:48;;;;;;;0.77;0.77;;;8.20;99.90;;;;;;5225158;28;20059;-75
2022/01/30 00:11:23;;;;;;;0.43;0.43;;;8.10;99.90;;;;;;5281728;28;20412;-76
2022/01/30 00:13:53;;;;;;;0.60;0.60;;;8.00;99.90;;;;;;5230165;28;20035;-76
2022/01/30 00:16:32;;;;;;;0.75;0.75;;;8.00;99.90;;;;;;5263536;28;20019;-74
2022/01/30 00:19:21;;;;;;;0.50;0.50;;;8.20;99.90;;;;;;5261323;28;20416;-74
2022/01/30 00:22:09;;;;;;;0.70;0.70;;;8.20;99.90;;;;;;5258999;28;20370;-74
2022/01/30 00:24:50;;;;;;;0.80;0.80;;;8.30;99.90;;;;;;5277550;28;20054;-74
2022/01/30 00:27:30;;;;;;;1.42;1.42;;;8.20;99.90;;;;;;5268156;28;20091;-74
2022/01/30 00:30:03;;;;;;;0.60;0.60;;;8.10;99.90;;;;;;5260048;28;20016;-75
2022/01/30 00:32:35;;;;;;;0.68;0.68;;;8.20;99.90;;;;;;5242129;28;20039;-73
2022/01/30 00:35:09;;;;;;;0.60;0.60;;;8.10;99.90;;;;;;5259775;28;20174;-73
2022/01/30 00:37:42;;;;;;;0.65;0.65;;;8.10;99.90;;;;;;5241858;28;20039;-73
2022/01/30 00:40:17;;;;;;;0.70;0.70;;;8.10;99.90;;;;;;5256710;28;20022;-73
2022/01/30 00:42:48;;;;;;;0.70;0.70;;;8.00;99.90;;;;;;5264179;28;20027;-73
2022/01/30 00:45:21;;;;;;;0.70;0.70;;;8.00;99.90;;;;;;5263575;28;20031;-73
2022/01/30 00:47:52;;;;;;;0.73;0.73;;;8.00;99.90;;;;;;5245330;28;20112;-74
2022/01/30 00:50:29;;;;;;;0.77;0.77;;;8.00;99.90;;;;;;5245752;28;20023;-74
2022/01/30 00:53:02;;;;;;;0.50;0.50;;;8.00;99.90;;;;;;5261920;28;20478;-73
2022/01/30 00:55:33;;;;;;;0.80;0.80;;;8.10;99.90;;;;;;5278440;28;20031;-74
2022/01/30 00:58:06;;;;;;;0.77;0.77;;;8.10;99.90;;;;;;5280586;28;20259;-73
2022/01/30 01:00:38;;;;;;;0.77;0.77;;;8.20;99.90;;;;;;5262436;28;20081;-75
2022/01/30 01:03:11;;;;;;;0.60;0.60;;;8.10;99.90;;;;;;5262355;28;20489;-73
2022/01/30 01:05:42;;;;;;;0.85;0.85;;;8.10;99.90;;;;;;5222672;28;20047;-73
2022/01/30 01:12:06;;;;;;;0.90;0.90;;;8.20;99.90;;;;;;5301591;28;20029;-74
2022/01/30 01:20:53;;;;;;;0.77;0.77;;;8.20;99.90;;;;;;5298882;28;20062;-74
2022/01/30 01:25:28;;;;;;;1.40;1.30;;;8.30;99.90;;;;;;5263652;28;20016;-74
2022/01/30 01:28:01;;;;;;;0.90;0.90;;;8.40;99.90;;;;;;5262923;28;20046;-74
2022/01/30 01:30:32;;;;;;;0.70;0.70;;;8.40;99.90;;;;;;5263204;28;20024;-74
2022/01/30 01:33:08;;;;;;;0.73;0.73;;;8.40;99.90;;;;;;5246721;28;20095;-74
2022/01/30 01:35:44;;;;;;;0.80;0.80;;;8.20;99.90;;;;;;5262895;28;20035;-74
2022/01/30 01:38:15;;;;;;;0.68;0.68;;;8.30;99.90;;;;;;5263783;28;20027;-74
2022/01/30 01:40:53;;;;;;;1.23;1.23;;;8.20;99.90;;;;;;5257042;28;20015;-74
2022/01/30 01:43:34;;;;;;;0.85;0.85;;;8.20;99.90;;;;;;5283805;28;20019;-74
2022/01/30 01:46:13;;;;;;;0.80;0.80;;;8.30;99.90;;;;;;5284660;28;20023;-74
2022/01/30 01:48:45;;;;;;;0.82;0.82;;;8.30;99.90;;;;;;5284325;28;20012;-74
2022/01/30 01:51:21;;;;;;;0.63;0.63;;;8.10;99.90;;;;;;5278868;28;20042;-74
2022/01/30 01:53:56;;;;;;;0.60;0.60;;;8.20;99.90;;;;;;5265149;28;20108;-74
2022/01/30 01:56:31;;;;;;;0.68;0.68;;;8.20;99.90;;;;;;5266074;28;20035;-74
2022/01/30 01:59:01;;;;;;;0.70;0.70;;;8.30;99.90;;;;;;5284215;28;20020;-74
2022/01/30 02:01:37;;;;;;;0.68;0.68;;;8.20;99.90;;;;;;5248093;28;20101;-74
2022/01/30 02:04:12;;;;;;;0.70;0.70;;;8.20;99.90;;;;;;5283951;28;20051;-73
2022/01/30 02:06:44;;;;;;;;;;;8.30;99.90;;;;;;5256307;28;20343;-74
2022/01/30 02:09:14;;;;;;;1.15;1.15;;;8.30;99.90;;;;;;5282835;28;20341;-74
2022/01/30 02:11:47;;;;;;;0.70;0.70;;;8.30;99.90;;;;;;5294316;27;20106;-73
2022/01/30 02:14:38;;;;;;;1.83;1.30;;;8.30;99.90;;;;;;5278553;27;20020;-75
2022/01/30 02:25:43;;;;;;;0.70;0.70;;;8.40;99.90;;;;;;5262245;28;20198;-74
2022/01/30 02:28:17;;;;;;;;;;;8.40;99.90;;;;;;5279499;28;20073;-75
2022/01/30 02:30:59;;;;;;;0.60;0.60;;;8.40;99.90;;;;;;5265161;28;19904;-75
2022/01/30 02:33:30;;;;;;;0.88;0.88;;;8.40;99.90;;;;;;5265216;28;20015;-75
2022/01/30 02:36:02;;;;;;;0.60;0.60;;;8.50;99.90;;;;;;5283111;28;20035;-74
2022/01/30 02:38:35;;;;;;;0.90;0.90;;;8.50;99.90;;;;;;5283184;28;20032;-74
2022/01/30 02:41:06;;;;;;;0.90;0.90;;;8.50;99.90;;;;;;5264119;28;20075;-75
2022/01/30 02:44:04;;;;;;;0.60;0.60;;;8.50;99.90;;;;;;5283212;28;20532;-74
2022/01/30 02:46:35;;;;;;;1.00;1.00;;;8.40;99.90;;;;;;5277216;28;20474;-74
2022/01/30 02:52:07;;;;;;;0.77;0.77;;;8.40;99.90;;;;;;5256333;28;20032;-74
2022/01/30 02:54:45;;;;;;;1.30;1.30;;;8.40;99.90;;;;;;5264962;28;20012;-74
2022/01/30 02:57:16;;;;;;;0.60;0.60;;;8.50;99.90;;;;;;5264578;28;20408;-73
2022/01/30 02:59:50;;;;;;;0.63;0.63;;;8.40;99.90;;;;;;5264451;28;20016;-73
2022/01/30 03:02:20;;;;;;;0.85;0.85;;;8.30;99.90;;;;;;5262229;28;20031;-73
2022/01/30 03:04:52;;;;;;;0.60;0.60;;;8.30;99.90;;;;;;5232315;28;20047;-74
2022/01/30 03:07:23;;;;;;;0.50;0.50;;;8.30;99.90;;;;;;5261818;28;20032;-73
2022/01/30 03:09:56;;;;;;;0.60;0.60;;;8.30;99.90;;;;;;5282196;28;20062;-73
2022/01/30 03:12:33;;;;;;;0.73;0.73;;;8.30;99.90;;;;;;5283036;28;20022;-74
2022/01/30 03:15:08;;;;;;;0.75;0.75;;;8.40;99.90;;;;;;5282391;28;20256;-73
2022/01/30 03:17:44;;;;;;;1.00;1.00;;;8.40;99.90;;;;;;5280024;28;20064;-73
2022/01/30 03:20:14;;;;;;;0.90;0.90;;;8.40;99.90;;;;;;5278902;28;20039;-73
2022/01/30 03:22:45;;;;;;;0.85;0.85;;;8.40;99.90;;;;;;5281955;28;20034;-74
2022/01/30 03:25:16;;;;;;;0.80;0.80;;;8.30;99.90;;;;;;5281993;28;20083;-74
2022/01/30 03:27:52;;;;;;;0.90;0.90;;;8.30;99.90;;;;;;5280983;28;20011;-74
2022/01/30 03:30:28;;;;;;;0.70;0.70;;;8.30;99.90;;;;;;5281358;28;20090;-73
2022/01/30 03:33:01;;;;;;;0.88;0.88;;;8.50;99.90;;;;;;5281766;28;20039;-73
2022/01/30 03:35:38;;;;;;;0.88;0.88;;;8.40;99.90;;;;;;5263639;28;20080;-74
2022/01/30 03:38:09;;;;;;;0.70;0.70;;;8.40;99.90;;;;;;5281414;28;20267;-74
2022/01/30 03:40:43;;;;;;;0.90;0.90;;;8.40;99.90;;;;;;5281695;28;20023;-74
2022/01/30 03:43:21;;;;;;;0.93;0.93;;;8.40;99.90;;;;;;5281265;28;20705;-74
2022/01/30 03:45:52;;;;;;;0.75;0.75;;;8.50;99.90;;;;;;5280639;28;20039;-74
2022/01/30 03:48:25;;;;;;;0.95;0.95;;;8.50;99.90;;;;;;5262542;28;20198;-74
2022/01/30 03:50:56;;;;;;;0.85;0.85;;;8.50;99.90;;;;;;5247296;28;20076;-73
2022/01/30 03:53:28;;;;;;;0.80;0.80;;;8.50;99.90;;;;;;5262941;28;20507;-74
2022/01/30 03:55:58;;;;;;;0.80;0.80;;;8.50;99.90;;;;;;5246633;28;20039;-73
2022/01/30 03:58:33;;;;;;;0.80;0.80;;;8.50;99.90;;;;;;5263300;28;20062;-75
2022/01/30 04:01:04;;;;;;;0.70;0.70;;;8.50;99.90;;;;;;5280935;28;20029;-76
2022/01/30 04:03:36;;;;;;;0.82;0.82;;;8.50;99.90;;;;;;5278300;27;20026;-76
2022/01/30 04:06:09;;;;;;;0.70;0.70;;;8.60;99.90;;;;;;5272207;27;20092;-74
2022/01/30 04:08:44;;;;;;;0.60;0.60;;;8.50;99.90;;;;;;5262828;28;20087;-76
2022/01/30 04:11:14;;;;;;;0.50;0.50;;;8.20;99.90;;;;;;5280974;28;20061;-74
2022/01/30 04:13:46;;;;;;;0.73;0.73;;;8.20;99.90;;;;;;5281581;28;20024;-74
2022/01/30 04:16:17;;;;;;;0.60;0.60;;;8.10;99.90;;;;;;5276873;28;20019;-75
2022/01/30 04:18:51;;;;;;;0.50;0.50;;;8.10;99.90;;;;;;5269372;28;20052;-75
2022/01/30 04:21:22;;;;;;;0.60;0.60;;;8.10;99.90;;;;;;5242014;28;20024;-75
2022/01/30 04:23:52;;;;;;;0.70;0.70;;;8.20;99.90;;;;;;5241986;28;20091;-74
2022/01/30 04:26:29;;;;;;;0.90;0.90;;;8.20;99.90;;;;;;5275950;27;20073;-76
2022/01/30 04:29:00;;;;;;;0.95;0.95;;;8.20;99.90;;;;;;5263617;28;20357;-75
2022/01/30 04:31:36;;;;;;;0.95;0.95;;;8.10;99.90;;;;;;5262247;28;20027;-75
2022/01/30 04:34:07;;;;;;;0.70;0.70;;;8.10;99.90;;;;;;5280745;28;20028;-75
2022/01/30 04:36:44;;;;;;;0.60;0.60;;;7.80;99.90;;;;;;5281065;28;20110;-75
2022/01/30 05:04:28;;;;;;;0.60;0.60;;;7.70;99.90;;;;;;5277981;28;20325;-74
2022/01/30 05:09:30;;;;;;;0.70;0.70;;;7.80;99.90;;;;;;5278902;28;20011;-74
2022/01/30 05:12:04;;;;;;;0.55;0.55;;;8.00;99.90;;;;;;5263968;28;20027;-74
2022/01/30 05:14:36;;;;;;;0.57;0.57;;;8.00;99.90;;;;;;5264827;28;20332;-74
2022/01/30 05:17:10;;;;;;;0.60;0.60;;;7.90;99.90;;;;;;5266923;28;20043;-74
2022/01/30 05:19:41;;;;;;;0.90;0.90;;;7.60;99.90;;;;;;5233140;28;20540;-73
2022/01/30 05:22:12;;;;;;;0.70;0.70;;;7.30;99.90;;;;;;5266773;28;20031;-73
2022/01/30 05:24:45;;;;;;;0.93;0.93;;;6.90;99.90;;;;;;5266224;28;20008;-74
2022/01/30 05:27:16;;;;;;;0.50;0.50;;;6.70;99.90;;;;;;5284265;28;20095;-74
2022/01/30 05:29:47;;;;;;;0.60;0.60;;;6.60;99.90;;;;;;5266202;28;20016;-75
2022/01/30 05:32:21;;;;;;;0.80;0.80;;;6.40;99.90;;;;;;5283887;28;20582;-74
2022/01/30 05:34:52;;;;;;;0.52;0.52;;;6.30;99.90;;;;;;5283263;28;20090;-74
2022/01/30 05:37:25;;;;;;;0.70;0.70;;;6.30;99.90;;;;;;5265888;28;20056;-74
2022/01/30 05:40:02;;;;;;;0.60;0.60;;;6.20;99.90;;;;;;5284624;28;20483;-73
2022/01/30 05:42:35;;;;;;;0.82;0.82;;;6.30;99.90;;;;;;5252052;28;20020;-74
2022/01/30 05:47:59;;;;;;;0.60;0.60;;;6.20;99.90;;;;;;5285837;28;20032;-75
2022/01/30 05:50:31;;;;;;;0.50;0.50;;;6.20;99.90;;;;;;5284241;28;20028;-75
2022/01/30 05:53:02;;;;;;;0.57;0.57;;;6.20;99.90;;;;;;5284701;28;20028;-74
2022/01/30 05:55:33;;;;;;;0.65;0.65;;;6.20;99.90;;;;;;5284651;28;20425;-74
2022/01/30 05:58:04;;;;;;;1.05;1.00;;;6.20;99.90;;;;;;5267862;27;20073;-75
2022/01/30 06:00:37;;;;;;;0.65;0.65;;;6.30;99.90;;;;;;5284416;27;20319;-74
2022/01/30 06:03:09;;;;;;;0.90;0.90;;;6.60;99.90;;;;;;5248106;28;20462;-74
2022/01/30 06:05:41;;;;;;;0.60;0.60;;;6.60;99.90;;;;;;5251710;28;20512;-74
2022/01/30 06:08:26;;;;;;;0.47;0.47;;;6.80;99.90;;;;;;5244971;28;20016;-76
2022/01/30 06:10:57;;;;;;;0.65;0.65;;;6.90;99.90;;;;;;5274598;27;20263;-76
2022/01/30 06:13:32;;;;;;;0.60;0.60;;;6.90;99.90;;;;;;5282513;28;20046;-76
2022/01/30 06:16:07;;;;;;;1.00;1.00;;;7.20;99.90;;;;;;5283315;28;20047;-75
2022/01/30 06:18:37;;;;;;;0.77;0.77;;;7.20;99.90;;;;;;5283479;28;20028;-75
2022/01/30 06:21:09;;;;;;;0.55;0.55;;;7.10;99.90;;;;;;5282918;28;20034;-75
2022/01/30 06:23:41;;;;;;;0.60;0.60;;;7.20;99.90;;;;;;5265930;28;20061;-75
2022/01/30 06:26:15;;;;;;;0.77;0.77;;;7.20;99.90;;;;;;5284993;28;20024;-75
2022/01/30 06:28:46;;;;;;;0.73;0.73;;;7.20;99.90;;;;;;5266094;28;20028;-74
2022/01/30 06:31:19;;;;;;;0.70;0.70;;;7.10;99.90;;;;;;5283133;28;20027;-74
2022/01/30 06:33:53;;;;;;;0.90;0.90;;;7.20;99.90;;;;;;5281232;28;20031;-74
2022/01/30 06:36:24;;;;;;;0.70;0.70;;;7.20;99.90;;;;;;5278194;28;20481;-74
2022/01/30 06:38:55;;;;;;;0.50;0.50;;;7.30;99.90;;;;;;5277780;28;20515;-74
2022/01/30 06:41:26;;;;;;;0.55;0.55;;;7.30;99.90;;;;;;5280228;28;20024;-75
2022/01/30 06:43:59;;;;;;;0.52;0.52;;;7.30;99.90;;;;;;5261096;28;20462;-75
2022/01/30 06:46:30;;;;;;;0.60;0.60;;;7.30;99.90;;;;;;5260425;28;20028;-74
2022/01/30 06:49:08;;;;;;;0.85;0.85;;;7.30;99.90;;;;;;5240234;28;20063;-75
2022/01/30 06:51:44;;;;;;;0.80;0.80;;;7.30;99.90;;;;;;5264112;28;20446;-74
2022/01/30 06:54:17;;;;;;;0.90;0.90;;;7.30;99.90;;;;;;5282676;28;20026;-74
2022/01/30 06:56:50;;;;;;;0.73;0.73;;;7.30;99.90;;;;;;5281907;28;20095;-75
2022/01/30 06:59:24;;;;;;;0.70;0.70;;;7.20;99.90;;;;;;5283711;28;20034;-74
2022/01/30 07:01:55;;;;;;;1.10;1.10;;;7.30;99.90;;;;;;5250024;28;20462;-75
2022/01/30 07:04:25;;;;;;;0.90;0.90;;;7.40;99.90;;;;;;5274373;27;20023;-74
2022/01/30 07:07:03;;;;;;;0.40;0.40;;;7.50;99.90;;;;;;5296376;27;20023;-75
2022/01/30 07:09:34;;;;;;;0.73;0.73;;;7.40;99.90;;;;;;5259036;28;20020;-74
2022/01/30 07:12:07;;;;;;;0.68;0.68;;;7.50;99.90;;;;;;5282510;28;20484;-74
2022/01/30 07:14:39;;;;;;;0.80;0.80;;;7.40;99.90;;;;;;5282440;28;20058;-76
2022/01/30 07:17:10;;;;;;;0.70;0.70;;;7.50;99.90;;;;;;5265180;28;20035;-75
2022/01/30 07:19:41;;;;;;;0.63;0.63;;;7.50;99.90;;;;;;5282802;28;20413;-75
2022/01/30 07:22:14;;;;;;;0.80;0.80;;;7.50;99.90;;;;;;5282590;28;20019;-75
2022/01/30 07:24:47;;;;;;;0.80;0.80;;;7.50;99.90;;;;;;5283420;28;20047;-75
2022/01/30 07:27:20;;;;;;;0.60;0.60;;;7.40;99.90;;;;;;5282715;28;20401;-75
2022/01/30 07:29:55;;;;;;;0.90;0.90;;;7.50;99.90;;;;;;5281162;28;20023;-75
2022/01/30 07:32:29;;;;;;;0.55;0.55;;;7.40;99.90;;;;;;5263108;28;20030;-75
2022/01/30 07:35:02;;;;;;;1.40;1.40;;;7.40;99.90;;;;;;5282271;28;20100;-74
2022/01/30 07:37:35;;;;;;;0.50;0.50;;;7.40;99.90;;;;;;5258331;28;20362;-75
2022/01/30 07:40:07;;;;;;;0.60;0.60;;;7.30;99.90;;;;;;5271889;28;20016;-75
2022/01/30 07:42:37;;;;;;;0.60;0.60;;;7.20;99.90;;;;;;5260329;28;20028;-75
2022/01/30 07:45:12;;;;;;;0.50;0.50;;;7.20;99.90;;;;;;5260128;28;20023;-75
2022/01/30 07:47:44;;;;;;;1.00;1.00;;;7.10;99.90;;;;;;5259832;28;20535;-75
2022/01/30 07:50:15;;;;;;;0.57;0.57;;;7.00;99.90;;;;;;5280134;28;20020;-75
2022/01/30 07:52:46;;;;;;;0.50;0.50;;;7.00;99.90;;;;;;5281975;27;20248;-75
2022/01/30 07:55:20;;;;;;;0.60;0.60;;;7.10;99.90;;;;;;5261790;28;20415;-75
2022/01/30 07:57:55;;;;;;;0.60;0.60;;;7.20;99.90;;;;;;5281554;28;20023;-75
2022/01/30 08:00:26;;;;;;;0.68;0.68;;;7.30;99.90;;;;;;5281569;28;20016;-75
2022/01/30 08:02:56;;;;;;;0.60;0.60;;;7.30;99.90;;;;;;5278691;28;20038;-74
2022/01/30 08:05:33;;;;;;;0.60;0.60;;;7.30;99.90;;;;;;5268560;28;20268;-75
2022/01/30 08:08:08;;;;;;;0.40;0.40;;;7.40;99.90;;;;;;5262787;28;20031;-75
2022/01/30 08:10:39;;;;;;;;;;;7.50;99.90;;;;;;5264271;28;20038;-74
2022/01/30 08:13:14;;;;;;;0.70;0.70;;;7.60;99.90;;;;;;5245690;28;20351;-75
2022/01/30 08:15:46;;;;;;;0.70;0.70;;;7.90;99.90;;;;;;5263327;28;20430;-74
2022/01/30 08:18:16;;;;;;;0.40;0.40;;;7.90;99.90;;;;;;5278858;27;20046;-74
2022/01/30 08:20:49;;;;;;;0.80;0.80;;;8.00;99.90;;;;;;5278902;28;20454;-74
2022/01/30 08:23:28;;;;;;;0.60;0.60;;;8.10;99.90;;;;;;5279465;28;20080;-74
2022/01/30 08:26:00;;;;;;;0.77;0.77;;;8.10;99.90;;;;;;5262079;28;20031;-74
2022/01/30 08:28:31;;;;;;;0.60;0.60;;;7.90;99.90;;;;;;5280050;28;20068;-74
2022/01/30 08:31:02;;;;;;;0.60;0.60;;;7.80;99.90;;;;;;5280613;28;20094;-74
2022/01/30 08:33:32;;;;;;;0.70;0.70;;;7.80;99.90;;;;;;5278996;28;20027;-74
2022/01/30 08:36:03;;;;;;;0.70;0.70;;;8.00;99.90;;;;;;5271844;28;20031;-74
2022/01/30 08:38:34;;;;;;;0.60;0.60;;;8.20;99.90;;;;;;5262870;28;20068;-74
2022/01/30 08:41:05;;;;;;;0.65;0.65;;;8.30;99.90;;;;;;5262386;28;20663;-74
2022/01/30 08:43:36;;;;;;;0.80;0.80;;;8.30;99.90;;;;;;5280509;28;20495;-73
2022/01/30 08:46:14;;;;;;;0.60;0.60;;;8.30;99.90;;;;;;5261002;28;20039;-74
2022/01/30 08:48:45;;;;;;;0.70;0.70;;;8.40;99.90;;;;;;5257722;28;20452;-73
2022/01/30 08:51:20;;;;;;;0.70;0.70;;;8.40;99.90;;;;;;5277368;28;20096;-75
2022/01/30 08:53:51;;;;;;;0.40;0.40;;;8.40;99.90;;;;;;5277202;28;20073;-74
2022/01/30 08:56:22;;;;;;;0.50;0.50;;;8.30;99.90;;;;;;5275760;28;20027;-73
2022/01/30 08:58:55;;;;;;;0.60;0.60;;;8.30;99.90;;;;;;5255406;28;20035;-74
2022/01/30 09:01:30;;;;;;;0.82;0.82;;;8.30;99.90;;;;;;5253890;28;20333;-75
2022/01/30 09:04:03;;;;;;;0.90;0.90;;;8.40;99.90;;;;;;5257808;28;20023;-73
2022/01/30 09:06:36;;;;;;;0.65;0.65;;;8.40;99.90;;;;;;5265781;28;20502;-74
2022/01/30 09:09:07;;;;;;;1.50;1.50;;;8.50;99.90;;;;;;5259968;28;20054;-74
2022/01/30 09:11:40;;;;;;;0.93;0.93;;;8.60;99.90;;;;;;5262622;28;20035;-74
2022/01/30 09:14:15;;;;;;;0.60;0.60;;;8.70;99.90;;;;;;5275066;28;20502;-73
2022/01/30 09:16:48;;;;;;;0.70;0.70;;;8.60;99.90;;;;;;5274938;28;20389;-73
2022/01/30 09:19:22;;;;;;;1.10;1.10;;;8.50;99.90;;;;;;5256111;28;20061;-73
2022/01/30 09:21:55;;;;;;;0.88;0.88;;;8.40;99.90;;;;;;5278078;28;20455;-73
2022/01/30 09:24:26;;;;;;;0.68;0.68;;;8.50;99.90;;;;;;5275367;28;20031;-73
2022/01/30 09:26:56;;;;;;;0.73;0.73;;;8.50;99.90;;;;;;5263837;28;20043;-74
2022/01/30 09:29:28;;;;;;;0.70;0.70;;;8.40;99.90;;;;;;5272042;28;20028;-74
2022/01/30 09:32:00;;;;;;;0.80;0.80;;;8.20;99.90;;;;;;5250773;28;20521;-74
2022/01/30 09:34:31;;;;;;;1.05;1.05;;;8.10;99.90;;;;;;5268776;28;20038;-75
2022/01/30 09:37:05;;;;;;;0.80;0.80;;;8.00;99.90;;;;;;5272169;28;20024;-74
2022/01/30 09:39:36;;;;;;;0.70;0.70;;;8.20;99.90;;;;;;5277472;28;20023;-75
2022/01/30 09:42:08;;;;;;;0.80;0.80;;;8.40;99.90;;;;;;5277762;28;20023;-73
2022/01/30 09:44:46;;;;;;;0.55;0.55;;;8.40;99.90;;;;;;5243526;28;20040;-73
2022/01/30 09:47:23;;;;;;;0.70;0.70;;;8.60;99.90;;;;;;5264638;28;20032;-74
2022/01/30 09:50:03;;;;;;;1.00;1.00;;;8.90;99.90;;;;;;5280600;27;20074;-75
2022/01/30 09:52:36;;;;;;;0.70;0.70;;;8.90;99.90;;;;;;5281081;28;20080;-74
2022/01/30 09:55:11;;;;;;;0.90;0.90;;;8.90;99.90;;;;;;5281722;28;20039;-76
2022/01/30 09:57:48;;;;;;;0.90;0.90;;;8.90;99.90;;;;;;5262664;28;20279;-75
2022/01/30 10:00:19;;;;;;;0.95;0.95;;;9.00;99.90;;;;;;5257556;28;20032;-74
2022/01/30 10:02:49;;;;;;;0.98;0.98;;;9.00;99.90;;;;;;5251977;28;20086;-74
2022/01/30 10:05:23;;;;;;;0.80;0.80;;;9.00;99.90;;;;;;5264156;28;20388;-75
2022/01/30 10:07:56;;;;;;;1.20;1.20;;;9.30;99.90;;;;;;5280952;28;20023;-75
2022/01/30 10:10:29;;;;;;;1.10;1.10;;;9.00;99.90;;;;;;5281000;28;20023;-74
2022/01/30 10:13:12;;;;;;;0.90;0.90;;;9.10;99.90;;;;;;5256190;28;20094;-74
2022/01/30 10:15:57;;;;;;;0.80;0.80;;;9.10;99.90;;;;;;5264716;28;20023;-74
2022/01/30 10:18:32;;;;;;;0.70;0.70;;;9.10;99.90;;;;;;5281044;28;20400;-75
2022/01/30 10:21:20;;;;;;;0.60;0.60;;;8.90;99.90;;;;;;5280709;28;20533;-74
2022/01/30 10:23:56;;;;;;;0.60;0.60;;;9.00;99.90;;;;;;5260860;28;20023;-74
2022/01/30 10:26:37;;;;;;;0.80;0.80;;;8.90;99.90;;;;;;5274891;28;20114;-75
2022/01/30 10:29:20;;;;;;;2.05;1.95;;;8.90;99.90;;;;;;5255614;28;20038;-74
2022/01/30 10:32:08;;;;;;;0.40;0.40;;;8.90;99.90;;;;;;5280421;28;20086;-74
2022/01/30 10:34:39;;;;;;;0.65;0.65;;;8.90;99.90;;;;;;5259774;28;20115;-74
2022/01/30 10:37:16;;;;;;;0.70;0.70;;;8.80;99.90;;;;;;5242249;28;20115;-74
2022/01/30 10:39:55;;;;;;;0.50;0.50;;;8.60;99.90;;;;;;5257485;27;20628;-74
2022/01/30 10:42:39;;;;;;;0.60;0.60;;;8.40;99.90;;;;;;5290538;27;20035;-74
2022/01/30 10:45:25;;;;;;;0.80;0.80;;;8.50;99.90;;;;;;5284595;27;20074;-74
2022/01/30 10:48:21;;;;;;;0.60;0.60;;;8.50;99.90;;;;;;5272333;28;20040;-74
2022/01/30 10:50:53;;;;;;;0.95;0.95;;;8.40;99.90;;;;;;5280044;28;20031;-76
2022/01/30 10:53:28;;;;;;;0.70;0.70;;;8.40;99.90;;;;;;5280989;28;20042;-74
2022/01/30 10:55:59;;;;;;;0.70;0.70;;;8.30;99.90;;;;;;5273000;28;20032;-74
2022/01/30 10:58:32;;;;;;;0.47;0.47;;;8.30;99.90;;;;;;5260533;28;20542;-76
2022/01/30 11:01:04;;;;;;;0.68;0.68;;;8.30;99.90;;;;;;5277852;28;20039;-74
2022/01/30 11:03:41;;;;;;;0.80;0.80;;;8.20;99.90;;;;;;5243698;28;20068;-74
2022/01/30 11:06:15;;;;;;;0.70;0.70;;;8.20;99.90;;;;;;5247646;27;20322;-75
2022/01/30 11:08:51;;;;;;;0.70;0.70;;;8.20;99.90;;;;;;5260050;28;20028;-74
2022/01/30 11:14:15;;;;;;;0.80;0.80;;;8.20;99.90;;;;;;5276284;28;20061;-74
2022/01/30 11:19:27;;;;;;;1.95;1.85;;;8.20;99.90;;;;;;5276681;28;20738;-74
2022/01/30 11:22:09;;;;;;;0.45;0.45;;;8.20;99.90;;;;;;5278415;28;20046;-74
2022/01/30 11:24:55;;;;;;;0.70;0.70;;;8.20;99.90;;;;;;5278355;28;20042;-74
2022/01/30 11:27:28;;;;;;;1.30;1.30;;;8.30;99.90;;;;;;5275450;28;20028;-74
2022/01/30 11:30:00;;;;;;;1.38;1.27;;;8.60;99.90;;;;;;5256963;28;20513;-74
2022/01/30 11:32:34;;;;;;;0.70;0.70;;;8.40;99.90;;;;;;5275840;28;20090;-73
2022/01/30 11:35:06;;;;;;;0.68;0.68;;;8.30;99.90;;;;;;5281639;28;20028;-75
2022/01/30 11:37:37;;;;;;;0.80;0.80;;;8.80;99.90;;;;;;5281398;28;20351;-74
2022/01/30 11:40:18;;;;;;;1.35;1.33;;;9.40;99.90;;;;;;5279044;28;20024;-74
2022/01/30 11:42:53;;;;;;;0.70;0.70;;;9.70;99.90;;;;;;5260725;28;20443;-73
2022/01/30 11:45:27;;;;;;;;;;;9.80;99.90;;;;;;5279349;28;20040;-74
2022/01/30 11:48:03;;;;;;;0.90;0.90;;;9.50;99.90;;;;;;5261210;28;20010;-74
2022/01/30 11:50:35;;;;;;;0.60;0.60;;;9.50;99.90;;;;;;5277860;28;20062;-74
2022/01/30 11:53:25;;;;;;;0.73;0.73;;;8.80;99.90;;;;;;5259623;28;20084;-74
2022/01/30 11:56:00;;;;;;;0.80;0.80;;;8.50;99.90;;;;;;5275641;28;20497;-74
2022/01/30 11:58:34;;;;;;;0.60;0.60;;;8.80;99.90;;;;;;5256986;28;20023;-74
2022/01/30 12:01:14;;;;;;;0.80;0.80;;;8.60;99.90;;;;;;5255166;28;20066;-74
2022/01/30 12:04:09;;;;;;;0.50;0.50;;;8.50;99.90;;;;;;5259733;28;20032;-75
2022/01/30 12:06:42;;;;;;;1.55;1.45;;;8.60;99.90;;;;;;5243198;28;20377;-75
2022/01/30 12:09:19;;;;;;;1.13;1.13;;;8.40;99.90;;;;;;5271552;28;20130;-74
2022/01/30 12:11:55;;;;;;;0.80;0.80;;;8.40;99.90;;;;;;5240021;28;20032;-74
2022/01/30 12:14:43;;;;;;;1.27;1.25;;;8.20;99.90;;;;;;5258079;28;20098;-73
2022/01/30 12:17:17;;;;;;;0.63;0.63;;;8.10;99.90;;;;;;5240189;28;20569;-74
2022/01/30 12:19:48;;;;;;;0.55;0.55;;;8.10;99.90;;;;;;5266319;28;20084;-75
2022/01/30 12:22:18;;;;;;;1.23;1.23;;;8.00;99.90;;;;;;5260680;28;20036;-75
2022/01/30 12:25:12;;;;;;;0.82;0.82;;;8.10;99.90;;;;;;5256919;28;20069;-74
2022/01/30 12:27:50;;;;;;;0.68;0.68;;;8.00;99.90;;;;;;5276034;28;20031;-74
2022/01/30 12:30:44;;;;;;;0.65;0.65;;;8.00;99.90;;;;;;5257172;28;20091;-73
2022/01/30 12:33:35;;;;;;;0.80;0.80;;;8.00;99.90;;;;;;5258397;28;20039;-75
2022/01/30 12:36:18;;;;;;;0.50;0.50;;;8.00;99.90;;;;;;5261237;28;20542;-75
2022/01/30 12:38:58;;;;;;;0.75;0.75;;;7.90;99.90;;;;;;5260430;28;20031;-74
2022/01/30 12:41:31;;;;;;;0.70;0.70;;;8.00;99.90;;;;;;5272594;27;20340;-74
2022/01/30 12:44:09;;;;;;;0.60;0.60;;;7.90;99.90;;;;;;5287183;28;20031;-74
2022/01/30 12:46:50;;;;;;;1.83;1.52;;;8.00;99.90;;;;;;5279172;28;20031;-74
2022/01/30 12:49:27;;;;;;;0.52;0.52;;;7.90;99.90;;;;;;5259481;28;20493;-74
2022/01/30 12:52:01;;;;;;;0.60;0.60;;;7.90;99.90;;;;;;5266194;28;20400;-73
2022/01/30 12:54:38;;;;;;;0.75;0.75;;;7.90;99.90;;;;;;5239628;28;20031;-74
2022/01/30 12:57:11;;;;;;;0.80;0.80;;;8.00;99.90;;;;;;5272214;28;20035;-74
2022/01/30 13:00:02;;;;;;;0.60;0.60;;;8.10;99.90;;;;;;5278365;28;20210;-74
2022/01/30 13:02:36;;;;;;;1.00;1.00;;;8.00;99.90;;;;;;5278292;28;20493;-73
2022/01/30 13:05:09;;;;;;;0.80;0.80;;;7.90;99.90;;;;;;5268422;28;20047;-73
2022/01/30 13:07:54;;;;;;;0.50;0.50;;;7.90;99.90;;;;;;5278551;28;20099;-74
2022/01/30 13:10:26;;;;;;;0.93;0.90;;;7.90;99.90;;;;;;5279521;28;20034;-73
2022/01/30 13:13:04;;;;;;;0.70;0.70;;;7.80;99.90;;;;;;5278892;28;20036;-73
2022/01/30 13:15:38;;;;;;;0.77;0.77;;;7.70;99.90;;;;;;5246257;28;20028;-74
2022/01/30 13:18:12;;;;;;;1.17;1.15;;;7.70;99.90;;;;;;5275184;28;20019;-74
2022/01/30 13:20:46;;;;;;;0.80;0.80;;;7.70;99.90;;;;;;5262930;28;20047;-74
2022/01/30 13:23:24;;;;;;;0.80;0.80;;;7.70;99.90;;;;;;5254072;28;20438;-74
2022/01/30 13:25:56;;;;;;;0.70;0.70;;;7.70;99.90;;;;;;5275264;28;20102;-73
2022/01/30 13:28:30;;;;;;;0.73;0.73;;;7.70;99.90;;;;;;5261866;28;20040;-74
2022/01/30 13:31:13;;;;;;;1.45;1.35;;;7.70;99.90;;;;;;5279377;28;20036;-74
2022/01/30 13:33:44;;;;;;;0.70;0.70;;;7.60;99.90;;;;;;5264743;28;20077;-74
2022/01/30 13:36:24;;;;;;;0.70;0.70;;;7.60;99.90;;;;;;5282652;28;20520;-75
2022/01/30 13:38:57;;;;;;;0.45;0.45;;;7.60;99.90;;;;;;5258333;28;20435;-74
2022/01/30 13:41:33;;;;;;;0.60;0.60;;;7.70;99.90;;;;;;5265396;28;20032;-73
2022/01/30 13:44:11;;;;;;;2.40;2.15;;;7.60;99.90;;;;;;5281006;28;20511;-74
2022/01/30 13:46:57;;;;;;;0.60;0.60;;;7.60;99.90;;;;;;5260333;28;20046;-74
2022/01/30 13:49:28;;;;;;;0.70;0.70;;;7.60;99.90;;;;;;5245752;27;20020;-74
2022/01/30 13:52:10;;;;;;;0.77;0.77;;;7.50;99.90;;;;;;5268833;28;20054;-73
2022/01/30 13:54:43;;;;;;;1.92;1.83;;;7.40;99.90;;;;;;5260443;28;20497;-75
2022/01/30 13:57:16;;;;;;;0.43;0.43;;;7.50;99.90;;;;;;5264014;28;20023;-75
2022/01/30 13:59:47;;;;;;;0.80;0.80;;;7.50;99.90;;;;;;5281457;28;20035;-76
2022/01/30 14:02:22;;;;;;;0.70;0.70;;;7.50;99.90;;;;;;5262512;28;20043;-74
2022/01/30 14:04:58;;;;;;;0.50;0.50;;;7.50;99.90;;;;;;5254362;28;20301;-76
2022/01/30 14:07:30;;;;;;;0.60;0.60;;;7.40;99.90;;;;;;5261970;28;20023;-74
2022/01/30 14:10:07;;;;;;;1.33;0.90;;;7.40;99.90;;;;;;5245994;28;20302;-74
2022/01/30 14:12:39;;;;;;;0.70;0.70;;;7.40;99.90;;;;;;5260532;28;20028;-73
2022/01/30 14:15:13;;;;;;;0.60;0.60;;;7.40;99.90;;;;;;5281632;28;20556;-74
2022/01/30 14:18:04;;;;;;;0.65;0.65;;;7.40;99.90;;;;;;5281789;28;20084;-73
2022/01/30 14:20:52;;;;;;;0.47;0.47;;;7.40;99.90;;;;;;5276261;28;20040;-74
2022/01/30 14:23:25;;;;;;;0.82;0.82;;;7.40;99.90;;;;;;5254101;28;20054;-73
2022/01/30 14:25:56;;;;;;;0.50;0.50;;;7.30;99.90;;;;;;5261500;28;20019;-73
2022/01/30 14:28:29;;;;;;;0.93;0.93;;;7.30;99.90;;;;;;5262982;28;20019;-75
2022/01/30 14:31:15;;;;;;;0.70;0.70;;;7.30;99.90;;;;;;5278135;27;20061;-73
2022/01/30 14:33:50;;;;;;;0.80;0.80;;;7.20;99.90;;;;;;5277542;28;20023;-73
2022/01/30 14:36:24;;;;;;;1.30;1.27;;;7.20;99.90;;;;;;5275922;27;20246;-73